createdAt,value
2023-04-20T00:00:36.725Z,62.10
2023-04-20T00:03:07.320Z,62.10
2023-04-20T00:05:35.252Z,62.10
2023-04-20T00:08:03.151Z,62.00
2023-04-20T00:10:30.907Z,62.10
2023-04-20T00:12:58.652Z,62.10
2023-04-20T00:15:26.341Z,62.10
2023-04-20T00:17:54.069Z,62.10
2023-04-20T00:20:23.118Z,62.90
2023-04-20T00:22:50.835Z,62.10
2023-04-20T00:25:18.586Z,62.10
2023-04-20T00:27:46.291Z,62.20
2023-04-20T00:30:15.081Z,62.20
2023-04-20T00:32:42.814Z,62.20
2023-04-20T00:35:11.082Z,62.20
2023-04-20T00:37:40.354Z,63.10
2023-04-20T00:40:09.604Z,62.20
2023-04-20T00:42:40.512Z,62.30
2023-04-20T00:45:09.355Z,62.30
2023-04-20T00:47:38.314Z,62.30
2023-04-20T00:50:07.556Z,62.30
2023-04-20T00:52:35.574Z,62.30
2023-04-20T00:55:06.746Z,62.30
2023-04-20T00:57:34.599Z,62.30
2023-04-20T01:00:02.398Z,62.40
2023-04-20T01:02:30.216Z,62.30
2023-04-20T01:04:58.089Z,62.40
2023-04-20T01:07:25.826Z,62.40
2023-04-20T01:09:53.523Z,62.40
2023-04-20T01:12:22.770Z,62.40
2023-04-20T01:14:50.465Z,62.50
2023-04-20T01:17:20.166Z,62.50
2023-04-20T01:19:48.992Z,62.50
2023-04-20T01:22:19.387Z,62.50
2023-04-20T01:24:47.125Z,62.50
2023-04-20T01:27:16.457Z,62.50
2023-04-20T01:29:44.574Z,62.60
2023-04-20T01:32:13.186Z,62.60
2023-04-20T01:34:42.355Z,62.60
2023-04-20T01:37:10.213Z,62.60
2023-04-20T01:39:42.034Z,62.60
2023-04-20T01:42:10.272Z,62.60
2023-04-20T01:44:37.999Z,62.70
2023-04-20T01:47:05.999Z,62.70
2023-04-20T01:49:33.953Z,62.70
2023-04-20T01:52:01.693Z,62.70
2023-04-20T01:54:29.448Z,62.70
2023-04-20T01:56:58.678Z,62.70
2023-04-20T01:59:26.672Z,62.60
2023-04-20T02:01:54.520Z,62.70
2023-04-20T02:04:22.439Z,62.60
2023-04-20T02:06:50.153Z,62.60
2023-04-20T02:09:17.958Z,62.60
2023-04-20T02:11:45.805Z,62.60
2023-04-20T02:14:14.860Z,62.60
2023-04-20T02:16:42.779Z,62.70
2023-04-20T02:19:10.963Z,62.70
2023-04-20T02:21:38.713Z,62.70
2023-04-20T02:24:07.178Z,62.70
2023-04-20T02:26:35.019Z,62.70
2023-04-20T02:29:02.697Z,62.80
2023-04-20T02:31:31.813Z,62.70
2023-04-20T02:33:59.538Z,62.80
2023-04-20T02:36:28.404Z,62.80
2023-04-20T02:38:56.142Z,62.80
2023-04-20T02:41:23.878Z,62.80
2023-04-20T02:43:51.854Z,62.80
2023-04-20T02:46:19.958Z,62.90
2023-04-20T02:48:49.469Z,62.90
2023-04-20T02:51:17.278Z,62.90
2023-04-20T02:53:46.917Z,62.90
2023-04-20T02:56:23.133Z,62.90
2023-04-20T02:58:55.732Z,62.90
2023-04-20T03:01:28.640Z,62.90
2023-04-20T03:04:07.500Z,62.90
2023-04-20T03:06:40.392Z,62.90
2023-04-20T03:09:11.422Z,62.90
2023-04-20T03:11:56.241Z,62.90
2023-04-20T03:14:52.943Z,63.00
2023-04-20T03:17:26.066Z,62.90
2023-04-20T03:19:55.164Z,63.00
2023-04-20T03:22:22.958Z,62.90
2023-04-20T03:24:54.672Z,63.00
2023-04-20T03:27:42.361Z,63.80
2023-04-20T03:30:14.093Z,63.00
2023-04-20T03:32:42.790Z,63.10
2023-04-20T03:35:12.120Z,63.10
2023-04-20T03:37:41.070Z,63.10
2023-04-20T03:40:10.313Z,63.10
2023-04-20T03:42:38.200Z,63.10
2023-04-20T03:45:08.000Z,63.10
2023-04-20T03:47:35.975Z,63.10
2023-04-20T03:50:04.173Z,63.10
2023-04-20T03:52:33.782Z,63.20
2023-04-20T03:55:05.743Z,63.10
2023-04-20T03:57:34.777Z,63.20
2023-04-20T04:00:05.282Z,63.20
2023-04-20T04:02:45.886Z,63.30
2023-04-20T04:05:16.137Z,63.30
2023-04-20T04:07:45.238Z,63.40
2023-04-20T04:10:14.212Z,63.50
2023-04-20T04:12:41.954Z,63.50
2023-04-20T04:15:11.954Z,63.60
2023-04-20T04:17:48.779Z,63.70
2023-04-20T04:20:16.668Z,63.70
2023-04-20T04:22:46.050Z,63.70
2023-04-20T04:25:31.563Z,63.70
2023-04-20T04:28:00.664Z,63.70
2023-04-20T04:30:30.500Z,63.70
2023-04-20T04:32:59.614Z,63.70
2023-04-20T04:35:30.285Z,63.80
2023-04-20T04:37:59.802Z,63.70
2023-04-20T04:40:28.036Z,63.70
2023-04-20T04:42:58.416Z,63.70
2023-04-20T04:45:26.203Z,63.70
2023-04-20T04:47:54.794Z,63.70
2023-04-20T04:50:22.676Z,63.70
2023-04-20T04:52:50.434Z,63.70
2023-04-20T04:55:19.629Z,63.70
2023-04-20T04:57:47.297Z,63.70
2023-04-20T05:00:16.112Z,63.60
2023-04-20T05:02:43.908Z,63.60
2023-04-20T05:05:11.634Z,63.60
2023-04-20T05:07:39.953Z,63.60
2023-04-20T05:10:09.204Z,63.40
2023-04-20T05:12:40.388Z,63.40
2023-04-20T05:15:09.370Z,63.40
2023-04-20T05:17:37.550Z,63.40
2023-04-20T05:20:06.656Z,63.40
2023-04-20T05:22:34.375Z,63.30
2023-04-20T05:25:02.321Z,63.30
2023-04-20T05:27:30.649Z,63.50
2023-04-20T05:30:12.670Z,63.30
2023-04-20T05:32:50.000Z,63.20
2023-04-20T05:35:19.262Z,63.20
2023-04-20T05:37:47.457Z,63.20
2023-04-20T05:40:15.730Z,63.40
2023-04-20T05:42:43.498Z,63.50
2023-04-20T05:45:13.128Z,63.70
2023-04-20T05:47:40.877Z,63.70
2023-04-20T05:50:10.148Z,63.80
2023-04-20T05:52:38.028Z,63.90
2023-04-20T05:55:06.510Z,64.00
2023-04-20T05:57:34.269Z,64.00
2023-04-20T06:00:03.580Z,64.00
2023-04-20T06:02:42.487Z,64.00
2023-04-20T06:05:11.406Z,64.00
2023-04-20T06:07:40.385Z,64.10
2023-04-20T06:10:09.002Z,64.10
2023-04-20T06:12:36.787Z,64.10
2023-04-20T06:15:06.394Z,64.10
2023-04-20T06:17:37.291Z,64.20
2023-04-20T06:20:08.363Z,64.20
2023-04-20T06:22:36.269Z,64.10
2023-04-20T06:25:04.643Z,64.10
2023-04-20T06:27:32.317Z,64.10
2023-04-20T06:30:00.046Z,64.10
2023-04-20T06:32:27.972Z,64.00
2023-04-20T06:34:55.717Z,64.00
2023-04-20T06:37:24.839Z,64.00
2023-04-20T06:39:54.334Z,64.00
2023-04-20T06:42:22.143Z,63.90
2023-04-20T06:44:50.921Z,63.90
2023-04-20T06:47:18.659Z,63.70
2023-04-20T06:49:46.412Z,63.90
2023-04-20T06:52:14.164Z,63.70
2023-04-20T06:54:43.191Z,63.70
2023-04-20T06:57:10.876Z,63.60
2023-04-20T06:59:38.580Z,63.60
2023-04-20T07:02:06.443Z,63.60
2023-04-20T07:04:34.380Z,63.60
2023-04-20T07:07:02.121Z,63.50
2023-04-20T07:09:29.813Z,63.60
2023-04-20T07:11:58.934Z,63.50
2023-04-20T07:14:26.628Z,63.50
2023-04-20T07:16:54.924Z,63.50
2023-04-20T07:19:22.689Z,63.40
2023-04-20T07:21:50.352Z,63.30
2023-04-20T07:24:18.051Z,63.30
2023-04-20T07:26:45.793Z,63.50
2023-04-20T07:29:15.004Z,63.30
2023-04-20T07:31:42.755Z,63.20
2023-04-20T07:34:11.066Z,63.20
2023-04-20T07:36:39.008Z,63.40
2023-04-20T07:39:07.117Z,63.40
2023-04-20T07:41:34.991Z,63.40
2023-04-20T07:44:02.719Z,63.30
2023-04-20T07:46:31.805Z,63.40
2023-04-20T07:48:59.703Z,63.30
2023-04-20T07:51:30.146Z,63.30
2023-04-20T07:53:58.034Z,63.30
2023-04-20T07:56:26.078Z,63.20
2023-04-20T07:58:53.822Z,63.20
2023-04-20T08:01:25.086Z,63.20
2023-04-20T08:03:55.573Z,63.20
2023-04-20T08:06:23.769Z,63.10
2023-04-20T08:08:51.459Z,63.10
2023-04-20T08:11:19.153Z,63.10
2023-04-20T08:13:46.980Z,63.10
2023-04-20T08:16:14.707Z,63.10
2023-04-20T08:18:42.545Z,63.00
2023-04-20T08:21:11.853Z,63.20
2023-04-20T08:23:39.655Z,63.20
2023-04-20T08:26:07.490Z,63.10
2023-04-20T08:28:35.288Z,63.10
2023-04-20T08:31:03.045Z,63.10
2023-04-20T08:33:31.149Z,63.10
2023-04-20T08:35:58.883Z,63.10
2023-04-20T08:38:33.880Z,63.10
2023-04-20T08:41:02.328Z,63.00
2023-04-20T08:43:30.416Z,63.00
2023-04-20T08:45:59.937Z,63.00
2023-04-20T08:48:32.410Z,63.00
2023-04-20T08:51:01.841Z,63.00
2023-04-20T08:53:31.354Z,63.00
2023-04-20T08:55:59.364Z,63.00
2023-04-20T08:58:31.230Z,63.00
2023-04-20T09:01:00.592Z,63.00
2023-04-20T09:03:35.828Z,63.00
2023-04-20T09:06:03.869Z,63.00
2023-04-20T09:08:38.088Z,63.00
2023-04-20T09:11:06.398Z,63.00
2023-04-20T09:13:35.131Z,63.00
2023-04-20T09:16:12.278Z,63.00
2023-04-20T09:18:40.226Z,63.10
2023-04-20T09:21:11.335Z,63.00
2023-04-20T09:23:41.668Z,63.00
2023-04-20T09:26:18.593Z,63.00
2023-04-20T09:28:46.288Z,63.00
2023-04-20T09:31:19.419Z,63.00
2023-04-20T09:33:56.972Z,63.10
2023-04-20T09:36:25.864Z,63.10
2023-04-20T09:39:08.520Z,63.10
2023-04-20T09:41:37.220Z,63.10
2023-04-20T09:44:06.613Z,63.10
2023-04-20T09:46:36.434Z,63.10
2023-04-20T09:49:06.218Z,63.10
2023-04-20T09:51:35.453Z,63.00
2023-04-20T09:54:06.941Z,62.90
2023-04-20T09:56:36.509Z,62.80
2023-04-20T09:59:04.640Z,62.50
2023-04-20T10:01:34.669Z,62.30
2023-04-20T10:04:04.393Z,61.90
2023-04-20T10:06:33.617Z,61.60
2023-04-20T10:09:04.842Z,61.30
2023-04-20T10:11:44.714Z,61.00
2023-04-20T10:14:18.874Z,60.80
2023-04-20T10:16:47.884Z,60.60
2023-04-20T10:19:15.709Z,60.30
2023-04-20T10:21:48.161Z,60.10
2023-04-20T10:24:29.274Z,59.90
2023-04-20T10:26:57.024Z,59.80
2023-04-20T10:29:25.824Z,59.70
2023-04-20T10:31:54.320Z,59.70
2023-04-20T10:34:31.092Z,59.70
2023-04-20T10:37:09.244Z,59.60
2023-04-20T10:39:44.511Z,59.70
2023-04-20T10:42:12.227Z,59.70
2023-04-20T10:44:48.918Z,59.80
2023-04-20T10:47:16.796Z,59.80
2023-04-20T10:49:44.750Z,59.80
2023-04-20T10:52:12.441Z,59.80
2023-04-20T10:54:41.793Z,59.80
2023-04-20T10:57:09.704Z,59.80
2023-04-20T10:59:38.910Z,59.90
2023-04-20T11:02:10.794Z,59.90
2023-04-20T11:04:38.699Z,59.90
2023-04-20T11:07:08.635Z,60.00
2023-04-20T11:09:38.302Z,60.00
2023-04-20T11:12:08.781Z,60.00
2023-04-20T11:14:40.065Z,60.10
2023-04-20T11:17:07.996Z,60.10
2023-04-20T11:19:37.442Z,60.20
2023-04-20T11:22:06.221Z,60.20
2023-04-20T11:24:35.456Z,60.20
2023-04-20T11:27:04.547Z,60.20
2023-04-20T11:29:35.217Z,60.40
2023-04-20T11:32:06.218Z,60.40
2023-04-20T11:34:35.422Z,60.50
2023-04-20T11:37:06.424Z,60.50
2023-04-20T11:39:34.737Z,60.50
2023-04-20T11:42:02.656Z,60.60
2023-04-20T11:44:30.554Z,60.60
2023-04-20T11:47:00.967Z,60.70
2023-04-20T11:49:29.898Z,60.70
2023-04-20T11:51:57.616Z,60.70
2023-04-20T11:54:27.243Z,60.70
2023-04-20T11:56:55.009Z,60.80
2023-04-20T11:59:22.702Z,60.70
2023-04-20T12:01:50.448Z,60.70
2023-04-20T12:04:19.735Z,60.80
2023-04-20T12:06:48.227Z,60.70
2023-04-20T12:09:16.866Z,60.80
2023-04-20T12:11:44.964Z,60.80
2023-04-20T12:14:12.652Z,60.80
2023-04-20T12:16:40.359Z,60.80
2023-04-20T12:19:08.935Z,60.80
2023-04-20T12:21:38.027Z,60.80
2023-04-20T12:24:06.177Z,60.80
2023-04-20T12:26:38.247Z,60.80
2023-04-20T12:29:07.031Z,60.90
2023-04-20T12:31:35.445Z,60.90
2023-04-20T12:34:03.926Z,60.90
2023-04-20T12:36:32.319Z,60.90
2023-04-20T12:39:01.661Z,60.90
2023-04-20T12:41:29.351Z,60.90
2023-04-20T12:43:57.067Z,60.90
2023-04-20T12:46:25.158Z,61.00
2023-04-20T12:48:53.089Z,61.00
2023-04-20T12:51:20.851Z,61.10
2023-04-20T12:53:48.637Z,61.20
2023-04-20T12:56:17.787Z,61.20
2023-04-20T12:58:46.188Z,61.20
2023-04-20T13:01:13.928Z,62.00
2023-04-20T13:03:42.496Z,61.30
2023-04-20T13:06:14.270Z,61.30
2023-04-20T13:08:42.305Z,61.30
2023-04-20T13:11:15.235Z,61.30
2023-04-20T13:13:44.372Z,61.30
2023-04-20T13:16:12.274Z,61.30
2023-04-20T13:18:40.022Z,61.40
2023-04-20T13:21:08.283Z,61.40
2023-04-20T13:23:37.951Z,61.50
2023-04-20T13:26:07.355Z,61.50
2023-04-20T13:28:35.176Z,61.60
2023-04-20T13:31:04.576Z,61.60
2023-04-20T13:33:33.722Z,61.70
2023-04-20T13:36:01.447Z,61.60
2023-04-20T13:38:29.154Z,61.70
2023-04-20T13:40:56.892Z,61.60
2023-04-20T13:43:24.580Z,61.80
2023-04-20T13:45:52.388Z,61.70
2023-04-20T13:48:21.588Z,61.70
2023-04-20T13:50:49.314Z,61.70
2023-04-20T13:53:16.985Z,61.70
2023-04-20T13:55:44.754Z,61.70
2023-04-20T13:58:12.446Z,61.70
2023-04-20T14:00:40.196Z,61.70
2023-04-20T14:03:10.536Z,61.60
2023-04-20T14:05:40.698Z,61.60
2023-04-20T14:08:08.497Z,61.70
2023-04-20T14:10:36.237Z,61.60
2023-04-20T14:13:03.939Z,62.00
2023-04-20T14:15:31.905Z,61.50
2023-04-20T14:18:00.255Z,61.70
2023-04-20T14:20:28.420Z,61.50
2023-04-20T14:22:57.437Z,61.40
2023-04-20T14:25:25.487Z,61.50
2023-04-20T14:27:53.201Z,61.40
2023-04-20T14:30:21.218Z,61.40
2023-04-20T14:32:56.640Z,61.50
2023-04-20T14:35:25.076Z,61.60
2023-04-20T14:37:53.353Z,61.60
2023-04-20T14:40:22.959Z,61.60
2023-04-20T14:42:50.655Z,61.70
2023-04-20T14:45:18.556Z,61.60
2023-04-20T14:47:46.248Z,61.80
2023-04-20T14:50:13.999Z,61.70
2023-04-20T14:52:41.671Z,61.80
2023-04-20T14:55:09.606Z,61.80
2023-04-20T14:57:38.631Z,61.90
2023-04-20T15:00:10.412Z,61.80
2023-04-20T15:02:38.338Z,61.80
2023-04-20T15:05:10.319Z,61.90
2023-04-20T15:07:38.714Z,61.90
2023-04-20T15:10:06.904Z,61.90
2023-04-20T15:12:34.631Z,62.00
2023-04-20T15:15:03.731Z,61.90
2023-04-20T15:17:31.537Z,62.10
2023-04-20T15:19:59.294Z,62.10
2023-04-20T15:22:27.002Z,62.10
2023-04-20T15:24:54.696Z,62.10
2023-04-20T15:27:22.376Z,62.00
2023-04-20T15:29:50.084Z,62.10
2023-04-20T15:32:19.161Z,62.10
2023-04-20T15:34:46.915Z,62.20
2023-04-20T15:37:14.624Z,62.50
2023-04-20T15:39:42.310Z,62.60
2023-04-20T15:42:09.987Z,62.80
2023-04-20T15:44:37.790Z,62.90
2023-04-20T15:47:05.585Z,63.10
2023-04-20T15:49:37.159Z,63.20
2023-04-20T15:52:05.121Z,63.40
2023-04-20T15:54:32.830Z,63.50
2023-04-20T15:57:00.520Z,63.50
2023-04-20T15:59:28.370Z,63.50
2023-04-20T16:01:56.108Z,63.50
2023-04-20T16:04:24.504Z,63.40
2023-04-20T16:06:53.832Z,63.30
2023-04-20T16:09:23.387Z,63.30
2023-04-20T16:11:51.588Z,63.20
2023-04-20T16:14:19.458Z,64.00
2023-04-20T16:16:47.333Z,63.00
2023-04-20T16:19:15.020Z,62.90
2023-04-20T16:21:42.748Z,62.90
2023-04-20T16:24:11.746Z,62.80
2023-04-20T16:26:41.194Z,62.80
2023-04-20T16:29:09.190Z,62.70
2023-04-20T16:31:37.448Z,62.70
2023-04-20T16:34:05.420Z,62.70
2023-04-20T16:36:33.148Z,62.60
2023-04-20T16:39:03.006Z,62.60
2023-04-20T16:41:32.019Z,62.60
2023-04-20T16:43:59.842Z,62.50
2023-04-20T16:46:27.571Z,62.50
2023-04-20T16:48:55.394Z,62.50
2023-04-20T16:51:23.099Z,62.50
2023-04-20T16:53:50.764Z,62.30
2023-04-20T16:56:18.517Z,62.40
2023-04-20T16:58:47.667Z,62.40
2023-04-20T17:01:15.461Z,62.40
2023-04-20T17:03:43.300Z,62.20
2023-04-20T17:06:11.140Z,62.30
2023-04-20T17:08:39.083Z,62.20
2023-04-20T17:11:07.446Z,62.30
2023-04-20T17:13:35.163Z,62.30
2023-04-20T17:16:04.516Z,62.20
2023-04-20T17:18:34.101Z,62.30
2023-04-20T17:21:02.625Z,62.30
2023-04-20T17:23:30.830Z,62.40
2023-04-20T17:25:58.767Z,62.30
2023-04-20T17:28:26.535Z,62.30
2023-04-20T17:30:54.207Z,62.40
2023-04-20T17:33:23.182Z,62.40
2023-04-20T17:35:50.999Z,62.40
2023-04-20T17:38:18.707Z,62.40
2023-04-20T17:40:46.374Z,62.50
2023-04-20T17:43:14.083Z,62.50
2023-04-20T17:45:41.832Z,62.50
2023-04-20T17:48:09.683Z,62.60
2023-04-20T17:50:38.742Z,62.60
2023-04-20T17:53:08.331Z,62.70
2023-04-20T17:55:36.318Z,62.70
2023-04-20T17:58:04.019Z,62.70
2023-04-20T18:00:31.727Z,62.80
2023-04-20T18:03:00.044Z,62.80
2023-04-20T18:05:27.912Z,62.90
2023-04-20T18:07:56.944Z,62.90
2023-04-20T18:10:24.662Z,62.90
2023-04-20T18:12:53.685Z,63.00
2023-04-20T18:15:21.750Z,63.00
2023-04-20T18:17:50.259Z,63.10
2023-04-20T18:20:19.088Z,63.10
2023-04-20T18:22:50.052Z,63.10
2023-04-20T18:25:19.682Z,63.20
2023-04-20T18:27:47.411Z,63.30
2023-04-20T18:30:16.103Z,63.30
2023-04-20T18:32:43.840Z,63.30
2023-04-20T18:35:11.893Z,63.30
2023-04-20T18:37:39.591Z,63.30
2023-04-20T18:40:08.999Z,63.40
2023-04-20T18:42:38.103Z,63.40
2023-04-20T18:45:06.947Z,63.40
2023-04-20T18:47:34.755Z,63.50
2023-04-20T18:50:02.599Z,63.50
2023-04-20T18:52:33.344Z,63.50
2023-04-20T18:55:01.202Z,63.50
2023-04-20T18:57:28.998Z,63.50
2023-04-20T18:59:58.054Z,63.50
2023-04-20T19:02:26.113Z,63.50
2023-04-20T19:04:54.141Z,63.50
2023-04-20T19:07:21.876Z,63.50
2023-04-20T19:09:49.590Z,63.60
2023-04-20T19:12:17.321Z,63.60
2023-04-20T19:14:46.491Z,63.60
2023-04-20T19:17:16.781Z,63.60
2023-04-20T19:19:44.489Z,63.60
2023-04-20T19:22:12.212Z,63.60
2023-04-20T19:24:39.930Z,63.60
2023-04-20T19:27:07.655Z,63.70
2023-04-20T19:29:36.238Z,63.60
2023-04-20T19:32:04.241Z,63.70
2023-04-20T19:34:33.254Z,63.70
2023-04-20T19:37:00.986Z,63.70
2023-04-20T19:39:28.875Z,63.70
2023-04-20T19:41:57.501Z,63.80
2023-04-20T19:44:25.231Z,63.80
2023-04-20T19:46:52.928Z,63.90
2023-04-20T19:49:20.813Z,63.90
2023-04-20T19:51:50.143Z,63.90
2023-04-20T19:54:17.834Z,63.80
2023-04-20T19:56:45.584Z,63.80
2023-04-20T19:59:13.331Z,63.70
2023-04-20T20:01:41.030Z,63.70
2023-04-20T20:04:08.883Z,63.60
2023-04-20T20:06:36.817Z,63.50
2023-04-20T20:09:06.668Z,63.50
2023-04-20T20:11:34.369Z,63.40
2023-04-20T20:14:02.076Z,63.40
2023-04-20T20:16:30.380Z,63.40
2023-04-20T20:18:59.787Z,63.40
2023-04-20T20:21:27.499Z,63.40
2023-04-20T20:23:55.186Z,63.40
2023-04-20T20:26:24.252Z,63.50
2023-04-20T20:28:51.942Z,63.40
2023-04-20T20:31:19.695Z,63.40
2023-04-20T20:33:47.513Z,63.40
2023-04-20T20:36:17.852Z,63.50
2023-04-20T20:38:45.857Z,63.50
2023-04-20T20:41:14.085Z,63.50
2023-04-20T20:43:43.263Z,63.60
2023-04-20T20:46:11.040Z,63.40
2023-04-20T20:48:38.798Z,63.60
2023-04-20T20:51:06.522Z,63.50
2023-04-20T20:53:34.236Z,63.50
2023-04-20T20:56:01.936Z,63.50
2023-04-20T20:58:29.713Z,63.50
2023-04-20T21:00:58.774Z,63.50
2023-04-20T21:03:26.871Z,63.50
2023-04-20T21:05:54.741Z,63.50
2023-04-20T21:08:22.484Z,63.60
2023-04-20T21:10:50.274Z,63.60
2023-04-20T21:13:18.907Z,63.50
2023-04-20T21:15:46.624Z,63.50
2023-04-20T21:18:15.759Z,63.60
2023-04-20T21:20:43.455Z,63.60
2023-04-20T21:23:11.361Z,63.60
2023-04-20T21:25:39.047Z,63.60
2023-04-20T21:28:06.739Z,63.60
2023-04-20T21:30:35.140Z,63.70
2023-04-20T21:33:02.840Z,63.60
2023-04-20T21:35:31.886Z,63.60
2023-04-20T21:37:59.621Z,63.70
2023-04-20T21:40:27.731Z,63.70
2023-04-20T21:42:55.419Z,63.70
2023-04-20T21:45:23.097Z,63.70
2023-04-20T21:47:51.155Z,63.70
2023-04-20T21:50:19.077Z,63.70
2023-04-20T21:52:48.141Z,63.80
2023-04-20T21:55:15.830Z,63.80
2023-04-20T21:57:43.525Z,63.80
2023-04-20T22:00:12.294Z,63.80
2023-04-20T22:02:43.159Z,63.80
2023-04-20T22:05:11.439Z,63.70
2023-04-20T22:07:39.260Z,63.80
2023-04-20T22:10:09.869Z,63.70
2023-04-20T22:12:40.193Z,63.70
2023-04-20T22:15:13.319Z,63.70
2023-04-20T22:17:41.466Z,63.70
2023-04-20T22:20:11.298Z,63.70
2023-04-20T22:22:40.048Z,63.70
2023-04-20T22:25:10.362Z,63.70
2023-04-20T22:27:38.576Z,63.70
2023-04-20T22:30:09.250Z,63.70
2023-04-20T22:32:37.213Z,63.70
2023-04-20T22:35:05.320Z,63.80
2023-04-20T22:37:33.027Z,63.80
2023-04-20T22:40:00.830Z,63.80
2023-04-20T22:42:29.842Z,63.80
2023-04-20T22:44:57.554Z,63.80
2023-04-20T22:47:25.270Z,63.80
2023-04-20T22:49:53.447Z,63.80
2023-04-20T22:52:21.848Z,63.80
2023-04-20T22:54:49.664Z,63.90
2023-04-20T22:57:18.517Z,63.90
2023-04-20T22:59:48.668Z,63.90
2023-04-20T23:02:16.816Z,63.90
2023-04-20T23:04:44.544Z,63.90
2023-04-20T23:07:12.374Z,63.90
2023-04-20T23:09:41.305Z,64.00
2023-04-20T23:12:10.240Z,63.90
2023-04-20T23:14:38.951Z,63.90
2023-04-20T23:17:08.190Z,63.90
2023-04-20T23:19:36.224Z,64.00
2023-04-20T23:22:04.194Z,63.90
2023-04-20T23:24:31.933Z,64.00
2023-04-20T23:26:59.612Z,64.00
2023-04-20T23:29:27.319Z,64.00
2023-04-20T23:31:55.122Z,64.00
2023-04-20T23:34:24.152Z,64.00
2023-04-20T23:36:53.830Z,64.00
2023-04-20T23:39:21.838Z,64.00
2023-04-20T23:41:49.622Z,64.00
2023-04-20T23:44:17.289Z,64.00
2023-04-20T23:46:44.993Z,64.10
2023-04-20T23:49:12.703Z,64.10
2023-04-20T23:51:42.045Z,64.80
2023-04-20T23:54:09.731Z,64.10
2023-04-20T23:56:37.422Z,64.10
2023-04-20T23:59:05.223Z,64.00
